METAR AND TAF INFORMATION
METAR FOR DNPO
ADDS - METARS form results

(0826 UTC 30 May 2020)
Data provider http://aviationweather.gov/metar/data/
 
METAR text: DNPO 300800Z VRB02KT 9999 BKN008 FEW020CB 26/23 Q1011 NOSIG
Conditions at: DNPO (PORT HARCOURT , NG) observed 0800 UTC 30 May 2020
Temperature: 26.0°C (79°F)
Dewpoint: 23.0°C (73°F) [RH = 84%]
Pressure (altimeter): 29.85 inches Hg (1011.0 mb)
Winds: variable direction winds at 2 MPH (2 knots; 1.0 m/s)
Visibility: 6 or more miles (10+ km)
Ceiling: 800 feet AGL
Clouds: broken clouds at 800 feet AGL
few clouds at 2000 feet AGL
Weather: no significant weather observed at this time

 AIRPORT MAP

 RUNWAY INFORMATION
Runway 03 Runway length 9846 ft Runway width 197 ft
Runway elevation 82 ft Runway displaced threshold 0 ft Runway heading 28
Runway 21 Runway length 9846 ft Runway width 197 ft
Runway elevation 87 ft Runway displaced threshold 0 ft Runway heading 208

 AIRPORT FREQUENCIES
Type APP Name APP Frequency 124.9 MHZ
Type ATIS Name ATIS Frequency 123.8 MHZ
Type TWR Name TWR Frequency 118.9 MHZ

 AIRPORT NEAR NAVIGATION AIDS